createdAt,value
2023-02-09T00:01:10.992Z,0.27
2023-02-09T00:03:39.646Z,0.21
2023-02-09T00:06:08.095Z,0.13
2023-02-09T00:08:35.952Z,0.05
2023-02-09T00:11:10.887Z,0.03
2023-02-09T00:13:37.937Z,-0.04
2023-02-09T00:16:04.967Z,-0.11
2023-02-09T00:18:32.423Z,-0.15
2023-02-09T00:21:03.618Z,-0.18
2023-02-09T00:23:31.415Z,-0.22
2023-02-09T00:26:16.115Z,-0.26
2023-02-09T00:28:42.722Z,-0.17
2023-02-09T00:31:11.611Z,-0.22
2023-02-09T00:33:38.646Z,-0.20
2023-02-09T00:36:07.523Z,-0.18
2023-02-09T00:38:35.081Z,-0.23
2023-02-09T00:41:02.019Z,-0.27
2023-02-09T00:43:28.467Z,-0.21
2023-02-09T00:45:54.970Z,-0.19
2023-02-09T00:48:21.493Z,-0.27
2023-02-09T00:50:48.020Z,-0.23
2023-02-09T00:53:14.463Z,-0.25
2023-02-09T00:55:41.042Z,-0.34
2023-02-09T00:58:07.487Z,-0.38
2023-02-09T01:00:34.214Z,-0.38
2023-02-09T01:03:00.678Z,-0.44
2023-02-09T01:05:27.104Z,-0.52
2023-02-09T01:07:54.062Z,-0.51
2023-02-09T01:10:20.607Z,-0.48
2023-02-09T01:12:47.048Z,-0.47
2023-02-09T01:15:13.620Z,-0.49
2023-02-09T01:17:40.512Z,-0.43
2023-02-09T01:20:08.824Z,-0.50
2023-02-09T01:22:38.362Z,-0.50
2023-02-09T01:25:05.888Z,-0.52
2023-02-09T01:27:32.453Z,-0.59
2023-02-09T01:29:58.936Z,-0.61
2023-02-09T01:32:25.449Z,-0.64
2023-02-09T01:34:55.593Z,-0.62
2023-02-09T01:37:22.118Z,-0.62
2023-02-09T01:39:48.638Z,-0.55
2023-02-09T01:42:17.176Z,-0.60
2023-02-09T01:44:43.486Z,-0.61
2023-02-09T01:47:14.738Z,-0.76
2023-02-09T01:49:41.372Z,-0.60
2023-02-09T01:52:12.457Z,-0.79
2023-02-09T01:54:46.870Z,-0.76
2023-02-09T01:57:25.354Z,-0.76
2023-02-09T01:59:54.886Z,-0.75
2023-02-09T02:02:22.610Z,-0.79
2023-02-09T02:04:50.048Z,-0.88
2023-02-09T02:07:25.674Z,-1.13
2023-02-09T02:09:52.426Z,-0.92
2023-02-09T02:12:18.899Z,-1.11
2023-02-09T02:14:45.412Z,-1.04
2023-02-09T02:17:30.798Z,-1.01
2023-02-09T02:20:15.599Z,-1.09
2023-02-09T02:22:59.847Z,-0.81
2023-02-09T02:25:49.896Z,-0.77
2023-02-09T02:28:28.622Z,-0.74
2023-02-09T02:30:58.169Z,-0.76
2023-02-09T02:33:52.798Z,-0.76
2023-02-09T02:36:44.332Z,-0.77
2023-02-09T02:39:31.224Z,-0.77
2023-02-09T02:42:24.339Z,-0.79
2023-02-09T02:45:06.626Z,-0.87
2023-02-09T02:47:35.032Z,-0.88
2023-02-09T02:50:08.474Z,-0.92
2023-02-09T02:52:34.885Z,-0.94
2023-02-09T02:55:06.598Z,-1.00
2023-02-09T02:57:34.678Z,-1.25
2023-02-09T03:00:05.377Z,-1.07
2023-02-09T03:02:36.910Z,-1.02
2023-02-09T03:05:05.047Z,-0.94
2023-02-09T03:07:31.907Z,-0.94
2023-02-09T03:09:58.794Z,-0.98
2023-02-09T03:12:41.336Z,-1.03
2023-02-09T03:15:17.503Z,-1.04
2023-02-09T03:18:17.691Z,-0.98
2023-02-09T03:20:47.535Z,-1.03
2023-02-09T03:23:27.727Z,-1.11
2023-02-09T03:25:56.181Z,-1.17
2023-02-09T03:28:26.009Z,-1.30
2023-02-09T03:30:52.950Z,-1.28
2023-02-09T03:33:21.095Z,-1.32
2023-02-09T03:35:51.118Z,-1.26
2023-02-09T03:38:17.585Z,-1.17
2023-02-09T03:40:45.213Z,-1.01
2023-02-09T03:43:11.842Z,-1.03
2023-02-09T03:45:38.414Z,-1.11
2023-02-09T03:48:05.414Z,-1.04
2023-02-09T03:50:32.794Z,-1.07
2023-02-09T03:52:59.514Z,-1.03
2023-02-09T03:55:26.109Z,-1.14
2023-02-09T03:57:52.703Z,-1.15
2023-02-09T04:00:19.452Z,-1.18
2023-02-09T04:02:46.044Z,-0.98
2023-02-09T04:05:12.791Z,-0.93
2023-02-09T04:07:39.344Z,-0.91
2023-02-09T04:10:06.439Z,-1.02
2023-02-09T04:12:33.031Z,-1.00
2023-02-09T04:14:59.458Z,-1.02
2023-02-09T04:17:25.897Z,-0.84
2023-02-09T04:19:52.464Z,-0.80
2023-02-09T04:22:18.919Z,-0.82
2023-02-09T04:24:45.357Z,-0.80
2023-02-09T04:27:11.813Z,-0.88
2023-02-09T04:29:38.390Z,-0.70
2023-02-09T04:32:05.115Z,-0.63
2023-02-09T04:34:31.512Z,-0.76
2023-02-09T04:36:57.965Z,-0.62
2023-02-09T04:39:24.407Z,-0.67
2023-02-09T04:41:51.091Z,-0.68
2023-02-09T04:44:17.542Z,-0.57
2023-02-09T04:46:45.696Z,-0.59
2023-02-09T04:49:12.700Z,-0.63
2023-02-09T04:51:39.327Z,-0.65
2023-02-09T04:54:05.746Z,-0.71
2023-02-09T04:56:32.146Z,-0.73
2023-02-09T04:59:17.208Z,-0.76
2023-02-09T05:01:43.796Z,-0.89
2023-02-09T05:04:10.201Z,-0.93
2023-02-09T05:06:36.584Z,-0.97
2023-02-09T05:09:03.005Z,-0.93
2023-02-09T05:11:29.495Z,-0.94
2023-02-09T05:13:55.994Z,-0.78
2023-02-09T05:16:22.500Z,-0.82
2023-02-09T05:18:50.575Z,-0.71
2023-02-09T05:21:17.024Z,-0.70
2023-02-09T05:23:43.391Z,-0.69
2023-02-09T05:26:09.925Z,-0.69
2023-02-09T05:28:36.645Z,-0.66
2023-02-09T05:31:03.298Z,-0.50
2023-02-09T05:33:29.890Z,-0.51
2023-02-09T05:35:56.361Z,-0.43
2023-02-09T05:38:23.004Z,-0.34
2023-02-09T05:40:49.738Z,-0.30
2023-02-09T05:43:16.426Z,-0.33
2023-02-09T05:45:43.801Z,-0.34
2023-02-09T05:48:10.289Z,-0.34
2023-02-09T05:50:37.270Z,-0.29
2023-02-09T05:53:03.783Z,-0.31
2023-02-09T05:55:30.351Z,-0.27
2023-02-09T05:57:56.777Z,-0.35
2023-02-09T06:00:25.091Z,-0.47
2023-02-09T06:02:51.848Z,-0.51
2023-02-09T06:05:19.903Z,-0.41
2023-02-09T06:07:46.470Z,-0.63
2023-02-09T06:10:12.853Z,-0.54
2023-02-09T06:12:41.112Z,-0.56
2023-02-09T06:15:08.228Z,-0.50
2023-02-09T06:17:34.648Z,-0.52
2023-02-09T06:20:01.055Z,-0.57
2023-02-09T06:22:29.143Z,-0.55
2023-02-09T06:24:55.634Z,-0.44
2023-02-09T06:27:22.169Z,-0.35
2023-02-09T06:29:48.676Z,-0.31
2023-02-09T06:32:15.217Z,-0.35
2023-02-09T06:34:41.635Z,-0.40
2023-02-09T06:37:08.054Z,-0.42
2023-02-09T06:39:34.611Z,-0.40
2023-02-09T06:42:01.208Z,-0.38
2023-02-09T06:44:27.739Z,-0.50
2023-02-09T06:46:54.618Z,-0.45
2023-02-09T06:49:23.886Z,-0.46
2023-02-09T06:51:50.609Z,-0.28
2023-02-09T06:54:17.223Z,-0.28
2023-02-09T06:56:43.648Z,-0.34
2023-02-09T06:59:10.212Z,-0.40
2023-02-09T07:01:37.387Z,-0.32
2023-02-09T07:04:03.830Z,-0.37
2023-02-09T07:06:30.466Z,-0.46
2023-02-09T07:08:56.982Z,-0.49
2023-02-09T07:11:23.419Z,-0.71
2023-02-09T07:13:49.876Z,-0.66
2023-02-09T07:16:16.786Z,-0.29
2023-02-09T07:18:43.392Z,-0.13
2023-02-09T07:21:12.874Z,0.05
2023-02-09T07:23:39.309Z,0.06
2023-02-09T07:26:08.469Z,0.14
2023-02-09T07:28:35.469Z,0.18
2023-02-09T07:31:05.220Z,0.37
2023-02-09T07:33:32.176Z,0.55
2023-02-09T07:35:59.214Z,0.52
2023-02-09T07:38:26.403Z,0.53
2023-02-09T07:40:53.070Z,0.55
2023-02-09T07:43:19.657Z,0.61
2023-02-09T07:45:46.674Z,0.87
2023-02-09T07:48:13.248Z,1.07
2023-02-09T07:50:39.722Z,1.10
2023-02-09T07:53:06.319Z,1.27
2023-02-09T07:55:32.802Z,1.37
2023-02-09T07:57:59.706Z,1.50
2023-02-09T08:00:26.103Z,1.53
2023-02-09T08:02:52.773Z,1.58
2023-02-09T08:05:26.120Z,2.04
2023-02-09T08:07:52.742Z,2.16
2023-02-09T08:10:19.641Z,2.17
2023-02-09T08:13:02.059Z,2.34
2023-02-09T08:15:38.250Z,2.41
2023-02-09T08:18:10.190Z,2.44
2023-02-09T08:20:37.629Z,2.55
2023-02-09T08:23:14.984Z,2.63
2023-02-09T08:25:41.475Z,2.65
2023-02-09T08:28:08.026Z,2.81
2023-02-09T08:30:35.028Z,2.94
2023-02-09T08:33:02.165Z,3.03
2023-02-09T08:35:30.573Z,3.13
2023-02-09T08:38:00.709Z,3.26
2023-02-09T08:40:27.188Z,3.43
2023-02-09T08:42:53.934Z,3.64
2023-02-09T08:45:20.603Z,3.65
2023-02-09T08:47:47.214Z,3.84
2023-02-09T08:50:13.762Z,3.97
2023-02-09T08:52:40.276Z,3.94
2023-02-09T08:55:07.068Z,4.08
2023-02-09T08:57:43.434Z,4.14
2023-02-09T09:00:11.453Z,4.12
2023-02-09T09:02:37.910Z,4.21
2023-02-09T09:05:04.633Z,4.36
2023-02-09T09:07:31.101Z,4.44
2023-02-09T09:09:57.588Z,4.58
2023-02-09T09:12:24.266Z,4.50
2023-02-09T09:14:50.977Z,4.66
2023-02-09T09:17:17.639Z,4.79
2023-02-09T09:19:44.184Z,4.89
2023-02-09T09:22:10.642Z,5.04
2023-02-09T09:24:40.660Z,5.06
2023-02-09T09:27:08.567Z,4.99
2023-02-09T09:29:36.028Z,5.01
2023-02-09T09:32:03.008Z,5.06
2023-02-09T09:34:29.556Z,5.21
2023-02-09T09:36:55.959Z,5.36
2023-02-09T09:39:22.567Z,5.33
2023-02-09T09:41:50.372Z,5.17
2023-02-09T09:44:31.067Z,5.37
2023-02-09T09:47:01.290Z,5.44
2023-02-09T09:49:29.524Z,5.37
2023-02-09T09:52:16.821Z,5.46
2023-02-09T09:54:43.901Z,5.80
2023-02-09T09:57:38.287Z,5.85
2023-02-09T10:00:20.791Z,6.01
2023-02-09T10:02:47.771Z,6.09
2023-02-09T10:05:20.408Z,6.25
2023-02-09T10:07:54.540Z,6.18
2023-02-09T10:10:46.012Z,6.33
2023-02-09T10:13:26.393Z,6.41
2023-02-09T10:15:54.830Z,6.56
2023-02-09T10:18:25.667Z,6.58
2023-02-09T10:21:06.895Z,6.78
2023-02-09T10:23:39.482Z,6.96
2023-02-09T10:26:08.892Z,6.84
2023-02-09T10:28:43.968Z,6.97
2023-02-09T10:31:16.143Z,6.91
2023-02-09T10:33:44.661Z,6.88
2023-02-09T10:36:23.836Z,6.70
2023-02-09T10:38:52.082Z,6.81
2023-02-09T10:41:19.375Z,6.98
2023-02-09T10:43:51.153Z,7.24
2023-02-09T10:46:19.150Z,7.31
2023-02-09T10:48:46.923Z,7.24
2023-02-09T10:51:16.432Z,7.18
2023-02-09T10:54:07.524Z,7.31
2023-02-09T10:56:43.430Z,7.02
2023-02-09T10:59:36.641Z,7.08
2023-02-09T11:02:03.064Z,7.13
2023-02-09T11:04:40.444Z,7.24
2023-02-09T11:07:12.745Z,7.39
2023-02-09T11:09:50.523Z,7.55
2023-02-09T11:12:16.986Z,7.73
2023-02-09T11:14:43.906Z,7.83
2023-02-09T11:17:30.853Z,7.98
2023-02-09T11:20:20.341Z,8.08
2023-02-09T11:23:06.912Z,8.14
2023-02-09T11:25:39.199Z,8.05
2023-02-09T11:28:30.278Z,7.76
2023-02-09T11:31:15.545Z,7.65
2023-02-09T11:34:00.605Z,7.63
2023-02-09T11:36:41.278Z,7.61
2023-02-09T11:39:12.178Z,7.75
2023-02-09T11:42:02.680Z,7.92
2023-02-09T11:44:35.709Z,8.06
2023-02-09T11:47:09.864Z,8.09
2023-02-09T11:49:51.040Z,8.18
2023-02-09T11:52:39.095Z,8.14
2023-02-09T11:55:23.164Z,8.22
2023-02-09T11:57:54.296Z,8.01
2023-02-09T12:00:26.895Z,7.93
2023-02-09T12:03:05.144Z,7.96
2023-02-09T12:05:31.840Z,8.12
2023-02-09T12:08:18.444Z,8.19
2023-02-09T12:11:07.975Z,8.51
2023-02-09T12:14:02.583Z,8.51
2023-02-09T12:16:34.175Z,8.52
2023-02-09T12:19:02.045Z,8.64
2023-02-09T12:21:32.518Z,8.51
2023-02-09T12:24:00.911Z,8.56
2023-02-09T12:26:37.596Z,8.80
2023-02-09T12:29:34.090Z,8.81
2023-02-09T12:32:03.549Z,8.87
2023-02-09T12:34:47.421Z,8.71
2023-02-09T12:37:13.931Z,8.55
2023-02-09T12:40:11.340Z,8.52
2023-02-09T12:42:43.213Z,8.30
2023-02-09T12:45:30.049Z,8.33
2023-02-09T12:48:07.515Z,8.28
2023-02-09T12:50:48.802Z,8.39
2023-02-09T12:53:26.344Z,8.34
2023-02-09T12:56:09.053Z,8.29
2023-02-09T12:58:45.598Z,8.42
2023-02-09T13:01:14.007Z,8.06
2023-02-09T13:04:01.405Z,8.16
2023-02-09T13:06:36.875Z,8.31
2023-02-09T13:09:08.916Z,8.31
2023-02-09T13:12:00.387Z,8.39
2023-02-09T13:14:27.229Z,8.22
2023-02-09T13:17:05.902Z,8.20
2023-02-09T13:20:09.691Z,8.26
2023-02-09T13:23:31.754Z,8.33
2023-02-09T13:26:15.784Z,8.26
2023-02-09T13:28:42.457Z,8.27
2023-02-09T13:31:33.448Z,8.41
2023-02-09T13:34:14.252Z,7.97
2023-02-09T13:36:45.564Z,8.14
2023-02-09T13:39:22.785Z,8.32
2023-02-09T13:41:50.022Z,8.38
2023-02-09T13:44:21.569Z,8.18
2023-02-09T13:46:56.712Z,8.02
2023-02-09T13:49:24.569Z,8.05
2023-02-09T13:52:09.657Z,8.22
2023-02-09T13:54:36.311Z,8.15
2023-02-09T13:57:03.514Z,7.87
2023-02-09T13:59:30.035Z,7.96
2023-02-09T14:01:56.493Z,8.06
2023-02-09T14:04:26.387Z,7.91
2023-02-09T14:07:16.243Z,7.93
2023-02-09T14:09:54.816Z,7.76
2023-02-09T14:12:55.594Z,7.78
2023-02-09T14:15:45.471Z,7.80
2023-02-09T14:18:30.736Z,8.03
2023-02-09T14:21:15.007Z,7.85
2023-02-09T14:23:44.713Z,7.97
2023-02-09T14:26:14.152Z,7.73
2023-02-09T14:28:42.194Z,7.79
2023-02-09T14:31:20.300Z,7.77
2023-02-09T14:33:51.268Z,7.81
2023-02-09T14:36:21.479Z,7.77
2023-02-09T14:38:49.391Z,7.85
2023-02-09T14:41:30.082Z,7.75
2023-02-09T14:44:20.947Z,7.90
2023-02-09T14:46:51.715Z,7.96
2023-02-09T14:49:19.400Z,7.82
2023-02-09T14:51:47.334Z,7.62
2023-02-09T14:54:24.518Z,7.50
2023-02-09T14:56:52.721Z,7.36
2023-02-09T14:59:20.511Z,7.41
2023-02-09T15:01:48.877Z,7.47
2023-02-09T15:04:15.307Z,7.43
2023-02-09T15:06:43.388Z,7.55
2023-02-09T15:09:18.060Z,7.29
2023-02-09T15:12:03.388Z,7.37
2023-02-09T15:14:35.715Z,7.26
2023-02-09T15:17:04.464Z,7.20
2023-02-09T15:19:30.966Z,7.17
2023-02-09T15:22:07.044Z,7.23
2023-02-09T15:24:36.125Z,7.01
2023-02-09T15:27:02.822Z,7.02
2023-02-09T15:29:30.489Z,7.06
2023-02-09T15:31:57.042Z,7.08
2023-02-09T15:34:23.733Z,7.25
2023-02-09T15:36:50.210Z,7.18
2023-02-09T15:39:21.224Z,7.04
2023-02-09T15:42:26.581Z,6.95
2023-02-09T15:45:12.502Z,7.19
2023-02-09T15:47:53.394Z,7.12
2023-02-09T15:50:19.960Z,7.13
2023-02-09T15:52:46.721Z,7.21
2023-02-09T15:55:19.409Z,7.18
2023-02-09T15:57:46.011Z,7.08
2023-02-09T16:00:31.158Z,7.10
2023-02-09T16:03:00.224Z,7.18
2023-02-09T16:05:28.752Z,6.94
2023-02-09T16:07:55.660Z,6.78
2023-02-09T16:10:24.600Z,6.76
2023-02-09T16:12:51.914Z,6.92
2023-02-09T16:15:23.257Z,6.71
2023-02-09T16:17:50.602Z,6.74
2023-02-09T16:20:18.433Z,6.61
2023-02-09T16:22:47.366Z,6.67
2023-02-09T16:25:25.264Z,6.68
2023-02-09T16:27:52.874Z,6.69
2023-02-09T16:30:22.301Z,6.68
2023-02-09T16:32:49.397Z,6.12
2023-02-09T16:35:17.823Z,6.71
2023-02-09T16:37:45.764Z,6.24
2023-02-09T16:40:21.447Z,6.01
2023-02-09T16:42:48.680Z,6.01
2023-02-09T16:45:15.949Z,5.99
2023-02-09T16:47:45.863Z,5.98
2023-02-09T16:50:27.452Z,6.68
2023-02-09T16:52:56.162Z,6.71
2023-02-09T16:55:24.714Z,6.74
2023-02-09T16:57:55.053Z,6.85
2023-02-09T17:00:26.869Z,6.87
2023-02-09T17:02:59.054Z,6.98
2023-02-09T17:05:31.392Z,6.85
2023-02-09T17:08:15.148Z,6.80
2023-02-09T17:10:41.604Z,6.81
2023-02-09T17:13:08.177Z,6.91
2023-02-09T17:15:40.480Z,6.92
2023-02-09T17:18:08.583Z,6.17
2023-02-09T17:20:38.265Z,6.15
2023-02-09T17:23:04.919Z,6.25
2023-02-09T17:25:31.557Z,6.18
2023-02-09T17:27:58.143Z,6.18
2023-02-09T17:30:25.564Z,6.50
2023-02-09T17:32:59.691Z,6.27
2023-02-09T17:35:52.963Z,6.07
2023-02-09T17:38:21.241Z,6.23
2023-02-09T17:40:47.669Z,6.33
2023-02-09T17:43:14.098Z,6.23
2023-02-09T17:45:41.949Z,6.04
2023-02-09T17:48:08.825Z,6.14
2023-02-09T17:50:35.229Z,6.16
2023-02-09T17:53:01.950Z,6.32
2023-02-09T17:55:30.081Z,6.27
2023-02-09T17:57:59.038Z,6.23
2023-02-09T18:00:26.765Z,6.15
2023-02-09T18:02:53.859Z,6.43
2023-02-09T18:05:25.260Z,6.52
2023-02-09T18:07:52.578Z,6.62
2023-02-09T18:10:21.542Z,6.67
2023-02-09T18:12:50.122Z,6.54
2023-02-09T18:15:23.197Z,6.82
2023-02-09T18:17:50.125Z,6.55
2023-02-09T18:20:18.982Z,6.64
2023-02-09T18:22:45.873Z,6.42
2023-02-09T18:25:25.163Z,6.52
2023-02-09T18:27:51.743Z,6.70
2023-02-09T18:30:25.623Z,6.30
2023-02-09T18:32:52.970Z,6.19
2023-02-09T18:35:25.073Z,6.40
2023-02-09T18:37:52.336Z,6.20
2023-02-09T18:40:19.440Z,6.37
2023-02-09T18:42:46.654Z,6.29
2023-02-09T18:45:14.784Z,6.45
2023-02-09T18:47:43.010Z,6.40
2023-02-09T18:50:20.490Z,6.44
2023-02-09T18:52:49.642Z,6.26
2023-02-09T18:55:16.326Z,6.33
2023-02-09T18:57:42.864Z,6.34
2023-02-09T19:00:11.257Z,6.49
2023-02-09T19:02:37.866Z,6.84
2023-02-09T19:05:05.806Z,7.20
2023-02-09T19:07:33.995Z,7.24
2023-02-09T19:10:00.962Z,6.92
2023-02-09T19:12:28.344Z,6.62
2023-02-09T19:14:55.108Z,6.66
2023-02-09T19:17:21.592Z,6.68
2023-02-09T19:19:48.505Z,6.59
2023-02-09T19:22:21.110Z,6.55
2023-02-09T19:24:50.410Z,6.56
2023-02-09T19:27:18.912Z,6.59
2023-02-09T19:29:47.250Z,6.67
2023-02-09T19:32:14.875Z,6.64
2023-02-09T19:34:43.261Z,6.53
2023-02-09T19:37:11.191Z,6.62
2023-02-09T19:39:39.948Z,6.56
2023-02-09T19:42:06.760Z,6.37
2023-02-09T19:44:33.611Z,6.55
2023-02-09T19:47:00.308Z,6.47
2023-02-09T19:49:26.970Z,6.56
2023-02-09T19:51:53.689Z,6.49
2023-02-09T19:54:20.552Z,6.57
2023-02-09T19:56:47.254Z,6.58
2023-02-09T19:59:16.957Z,6.59
2023-02-09T20:01:43.707Z,6.81
2023-02-09T20:04:10.306Z,7.69
2023-02-09T20:06:36.778Z,7.59
2023-02-09T20:09:03.450Z,7.27
2023-02-09T20:11:29.946Z,7.04
2023-02-09T20:13:56.554Z,7.13
2023-02-09T20:16:25.274Z,7.14
2023-02-09T20:18:52.538Z,6.97
2023-02-09T20:21:20.866Z,6.84
2023-02-09T20:23:48.022Z,6.68
2023-02-09T20:26:17.326Z,6.61
2023-02-09T20:28:44.287Z,6.40
2023-02-09T20:31:11.310Z,6.19
2023-02-09T20:33:39.168Z,6.53
2023-02-09T20:36:07.321Z,6.72
2023-02-09T20:38:36.316Z,6.55
2023-02-09T20:41:03.419Z,6.50
2023-02-09T20:44:05.520Z,6.56
2023-02-09T20:46:52.122Z,6.35
2023-02-09T20:49:18.732Z,6.24
2023-02-09T20:51:46.349Z,5.97
2023-02-09T20:54:14.358Z,6.07
2023-02-09T20:56:41.119Z,5.86
2023-02-09T20:59:08.204Z,5.86
2023-02-09T21:01:37.408Z,6.14
2023-02-09T21:04:06.420Z,5.81
2023-02-09T21:06:33.949Z,6.00
2023-02-09T21:09:00.513Z,6.02
2023-02-09T21:11:27.133Z,5.82
2023-02-09T21:13:54.959Z,5.70
2023-02-09T21:16:21.838Z,5.31
2023-02-09T21:18:48.329Z,5.38
2023-02-09T21:21:16.517Z,5.52
2023-02-09T21:23:44.181Z,5.67
2023-02-09T21:26:14.312Z,5.63
2023-02-09T21:28:40.807Z,5.60
2023-02-09T21:31:12.223Z,5.57
2023-02-09T21:33:40.006Z,5.64
2023-02-09T21:36:08.074Z,5.69
2023-02-09T21:38:37.251Z,5.78
2023-02-09T21:41:35.739Z,5.64
2023-02-09T21:44:02.846Z,5.65
2023-02-09T21:46:29.425Z,5.96
2023-02-09T21:48:56.301Z,5.81
2023-02-09T21:51:22.936Z,6.04
2023-02-09T21:53:49.429Z,5.93
2023-02-09T21:56:16.274Z,5.99
2023-02-09T21:58:42.914Z,6.02
2023-02-09T22:01:12.264Z,6.12
2023-02-09T22:03:39.267Z,6.16
2023-02-09T22:06:06.814Z,6.20
2023-02-09T22:08:33.365Z,6.18
2023-02-09T22:11:01.692Z,6.16
2023-02-09T22:13:28.901Z,6.35
2023-02-09T22:15:55.806Z,6.39
2023-02-09T22:18:22.624Z,6.56
2023-02-09T22:20:50.786Z,6.51
2023-02-09T22:23:18.490Z,6.40
2023-02-09T22:25:45.098Z,6.72
2023-02-09T22:28:12.083Z,6.75
2023-02-09T22:30:38.606Z,6.82
2023-02-09T22:33:05.957Z,6.79
2023-02-09T22:35:32.493Z,6.61
2023-02-09T22:37:58.944Z,6.79
2023-02-09T22:40:25.397Z,6.84
2023-02-09T22:42:52.163Z,6.89
2023-02-09T22:45:18.872Z,6.79
2023-02-09T22:47:45.298Z,6.98
2023-02-09T22:50:12.059Z,6.91
2023-02-09T22:52:38.564Z,7.03
2023-02-09T22:55:05.409Z,7.06
2023-02-09T22:57:31.850Z,7.23
2023-02-09T22:59:58.276Z,7.29
2023-02-09T23:02:25.036Z,7.36
2023-02-09T23:04:51.449Z,7.30
2023-02-09T23:07:17.901Z,7.31
2023-02-09T23:09:44.443Z,7.36
2023-02-09T23:12:10.870Z,7.36
2023-02-09T23:14:37.328Z,7.25
2023-02-09T23:17:03.766Z,7.27
2023-02-09T23:19:30.329Z,7.48
2023-02-09T23:21:56.754Z,7.52
2023-02-09T23:24:24.582Z,7.41
2023-02-09T23:26:51.633Z,7.36
2023-02-09T23:29:18.831Z,7.37
2023-02-09T23:31:46.067Z,7.43
2023-02-09T23:34:21.132Z,7.39
2023-02-09T23:36:47.613Z,7.42
2023-02-09T23:39:17.447Z,7.40
2023-02-09T23:41:43.933Z,7.17
2023-02-09T23:44:10.987Z,6.84
2023-02-09T23:46:37.446Z,6.61
2023-02-09T23:49:03.994Z,6.51
2023-02-09T23:51:32.755Z,6.09
2023-02-09T23:54:01.762Z,6.00
2023-02-09T23:56:29.949Z,6.55
2023-02-09T23:58:56.461Z,6.29
